sensor_id;sensor_type;location;lat;lon;timestamp;temperature;humidity
36374;DHT22;22399;51.346;12.372;2023-11-19T00:00:28;5.50;99.90
36374;DHT22;22399;51.346;12.372;2023-11-19T00:02:56;5.50;99.90
36374;DHT22;22399;51.346;12.372;2023-11-19T00:05:24;5.50;99.90
36374;DHT22;22399;51.346;12.372;2023-11-19T00:07:54;5.60;99.90
36374;DHT22;22399;51.346;12.372;2023-11-19T00:10:23;5.60;99.90
36374;DHT22;22399;51.346;12.372;2023-11-19T00:12:52;5.50;99.90
36374;DHT22;22399;51.346;12.372;2023-11-19T00:15:20;5.50;99.90
36374;DHT22;22399;51.346;12.372;2023-11-19T00:17:51;5.50;99.90
36374;DHT22;22399;51.346;12.372;2023-11-19T00:20:20;5.50;99.90
36374;DHT22;22399;51.346;12.372;2023-11-19T00:22:50;5.40;99.90
36374;DHT22;22399;51.346;12.372;2023-11-19T00:25:21;5.30;99.90
36374;DHT22;22399;51.346;12.372;2023-11-19T00:27:50;5.30;99.90
36374;DHT22;22399;51.346;12.372;2023-11-19T00:30:21;5.30;99.90
36374;DHT22;22399;51.346;12.372;2023-11-19T00:32:49;5.30;99.90
36374;DHT22;22399;51.346;12.372;2023-11-19T00:35:18;5.20;99.90
36374;DHT22;22399;51.346;12.372;2023-11-19T00:37:46;5.20;99.90
36374;DHT22;22399;51.346;12.372;2023-11-19T00:40:16;5.20;99.90
36374;DHT22;22399;51.346;12.372;2023-11-19T00:42:47;5.20;99.90
36374;DHT22;22399;51.346;12.372;2023-11-19T00:45:15;5.20;99.90
36374;DHT22;22399;51.346;12.372;2023-11-19T00:47:43;5.20;99.90
36374;DHT22;22399;51.346;12.372;2023-11-19T00:50:12;5.20;99.90
36374;DHT22;22399;51.346;12.372;2023-11-19T00:52:40;5.20;99.90
36374;DHT22;22399;51.346;12.372;2023-11-19T00:55:09;5.20;99.90
36374;DHT22;22399;51.346;12.372;2023-11-19T00:57:39;5.20;99.90
36374;DHT22;22399;51.346;12.372;2023-11-19T01:00:10;5.20;99.90
36374;DHT22;22399;51.346;12.372;2023-11-19T01:02:47;5.20;99.90
36374;DHT22;22399;51.346;12.372;2023-11-19T01:05:19;5.20;99.90
36374;DHT22;22399;51.346;12.372;2023-11-19T01:07:50;5.20;99.90
36374;DHT22;22399;51.346;12.372;2023-11-19T01:10:21;5.20;99.90
36374;DHT22;22399;51.346;12.372;2023-11-19T01:12:50;5.20;99.90
36374;DHT22;22399;51.346;12.372;2023-11-19T01:15:20;5.20;99.90
36374;DHT22;22399;51.346;12.372;2023-11-19T01:17:50;5.30;99.90
36374;DHT22;22399;51.346;12.372;2023-11-19T01:20:20;5.20;99.90
36374;DHT22;22399;51.346;12.372;2023-11-19T01:22:49;5.30;99.90
36374;DHT22;22399;51.346;12.372;2023-11-19T01:25:18;5.30;99.90
36374;DHT22;22399;51.346;12.372;2023-11-19T01:27:47;5.30;99.90
36374;DHT22;22399;51.346;12.372;2023-11-19T01:30:16;5.30;99.90
36374;DHT22;22399;51.346;12.372;2023-11-19T01:32:45;5.30;99.90
36374;DHT22;22399;51.346;12.372;2023-11-19T01:35:14;5.30;99.90
36374;DHT22;22399;51.346;12.372;2023-11-19T01:37:42;5.30;99.90
36374;DHT22;22399;51.346;12.372;2023-11-19T01:40:11;5.30;99.90
36374;DHT22;22399;51.346;12.372;2023-11-19T01:42:40;5.40;99.90
36374;DHT22;22399;51.346;12.372;2023-11-19T01:45:10;5.40;99.90
36374;DHT22;22399;51.346;12.372;2023-11-19T01:47:49;5.40;99.90
36374;DHT22;22399;51.346;12.372;2023-11-19T01:50:19;5.40;99.90
36374;DHT22;22399;51.346;12.372;2023-11-19T01:52:48;5.40;99.90
36374;DHT22;22399;51.346;12.372;2023-11-19T01:55:16;5.40;99.90
36374;DHT22;22399;51.346;12.372;2023-11-19T01:57:46;5.40;99.90
36374;DHT22;22399;51.346;12.372;2023-11-19T02:00:15;5.30;99.90
36374;DHT22;22399;51.346;12.372;2023-11-19T02:02:44;5.30;99.90
36374;DHT22;22399;51.346;12.372;2023-11-19T02:05:16;5.30;99.90
36374;DHT22;22399;51.346;12.372;2023-11-19T02:07:45;5.30;99.90
36374;DHT22;22399;51.346;12.372;2023-11-19T02:10:14;5.30;99.90
36374;DHT22;22399;51.346;12.372;2023-11-19T02:12:44;5.30;99.90
36374;DHT22;22399;51.346;12.372;2023-11-19T02:15:12;5.30;99.90
36374;DHT22;22399;51.346;12.372;2023-11-19T02:17:44;5.30;99.90
36374;DHT22;22399;51.346;12.372;2023-11-19T02:20:12;5.20;99.90
36374;DHT22;22399;51.346;12.372;2023-11-19T02:22:43;5.20;99.90
36374;DHT22;22399;51.346;12.372;2023-11-19T02:25:17;5.20;99.90
36374;DHT22;22399;51.346;12.372;2023-11-19T02:27:53;5.30;99.90
36374;DHT22;22399;51.346;12.372;2023-11-19T02:30:24;5.20;99.90
36374;DHT22;22399;51.346;12.372;2023-11-19T02:32:53;5.30;99.90
36374;DHT22;22399;51.346;12.372;2023-11-19T02:35:24;5.30;99.90
36374;DHT22;22399;51.346;12.372;2023-11-19T02:37:54;5.30;99.90
36374;DHT22;22399;51.346;12.372;2023-11-19T02:40:23;5.30;99.90
36374;DHT22;22399;51.346;12.372;2023-11-19T02:42:53;5.20;99.90
36374;DHT22;22399;51.346;12.372;2023-11-19T02:45:24;5.20;99.90
36374;DHT22;22399;51.346;12.372;2023-11-19T02:47:52;5.20;99.90
36374;DHT22;22399;51.346;12.372;2023-11-19T02:50:22;5.20;99.90
36374;DHT22;22399;51.346;12.372;2023-11-19T02:52:54;5.30;99.90
36374;DHT22;22399;51.346;12.372;2023-11-19T02:55:24;5.30;99.90
36374;DHT22;22399;51.346;12.372;2023-11-19T02:57:56;5.30;99.90
36374;DHT22;22399;51.346;12.372;2023-11-19T03:00:27;5.30;99.90
36374;DHT22;22399;51.346;12.372;2023-11-19T03:03:03;5.30;99.90
36374;DHT22;22399;51.346;12.372;2023-11-19T03:05:46;5.40;99.90
36374;DHT22;22399;51.346;12.372;2023-11-19T03:08:15;5.40;99.90
36374;DHT22;22399;51.346;12.372;2023-11-19T03:10:47;5.40;99.90
36374;DHT22;22399;51.346;12.372;2023-11-19T03:13:17;5.40;99.90
36374;DHT22;22399;51.346;12.372;2023-11-19T03:15:46;5.40;99.90
36374;DHT22;22399;51.346;12.372;2023-11-19T03:18:16;5.50;99.90
36374;DHT22;22399;51.346;12.372;2023-11-19T03:20:46;5.50;99.90
36374;DHT22;22399;51.346;12.372;2023-11-19T03:23:14;5.50;99.90
36374;DHT22;22399;51.346;12.372;2023-11-19T03:25:43;5.50;99.90
36374;DHT22;22399;51.346;12.372;2023-11-19T03:28:11;5.50;99.90
36374;DHT22;22399;51.346;12.372;2023-11-19T03:30:42;5.60;99.90
36374;DHT22;22399;51.346;12.372;2023-11-19T03:33:10;5.60;99.90
36374;DHT22;22399;51.346;12.372;2023-11-19T03:35:39;5.60;99.90
36374;DHT22;22399;51.346;12.372;2023-11-19T03:38:08;5.60;99.90
36374;DHT22;22399;51.346;12.372;2023-11-19T03:40:37;5.60;99.90
36374;DHT22;22399;51.346;12.372;2023-11-19T03:43:06;5.70;99.90
36374;DHT22;22399;51.346;12.372;2023-11-19T03:45:36;5.70;99.90
36374;DHT22;22399;51.346;12.372;2023-11-19T03:48:08;5.70;99.90
36374;DHT22;22399;51.346;12.372;2023-11-19T03:50:37;5.70;99.90
36374;DHT22;22399;51.346;12.372;2023-11-19T03:53:06;5.70;99.90
36374;DHT22;22399;51.346;12.372;2023-11-19T03:55:35;5.80;99.90
36374;DHT22;22399;51.346;12.372;2023-11-19T03:58:03;5.80;99.90
36374;DHT22;22399;51.346;12.372;2023-11-19T04:00:32;5.80;99.90
36374;DHT22;22399;51.346;12.372;2023-11-19T04:03:00;5.80;99.90
36374;DHT22;22399;51.346;12.372;2023-11-19T04:05:31;5.80;99.90
36374;DHT22;22399;51.346;12.372;2023-11-19T04:07:59;5.80;99.90
36374;DHT22;22399;51.346;12.372;2023-11-19T04:10:28;5.80;99.90
36374;DHT22;22399;51.346;12.372;2023-11-19T04:12:56;5.90;99.90
36374;DHT22;22399;51.346;12.372;2023-11-19T04:15:25;5.90;99.90
36374;DHT22;22399;51.346;12.372;2023-11-19T04:17:53;5.90;99.90
36374;DHT22;22399;51.346;12.372;2023-11-19T04:20:22;6.00;99.90
36374;DHT22;22399;51.346;12.372;2023-11-19T04:22:52;6.00;99.90
36374;DHT22;22399;51.346;12.372;2023-11-19T04:25:21;6.10;99.90
36374;DHT22;22399;51.346;12.372;2023-11-19T04:27:50;6.10;99.90
36374;DHT22;22399;51.346;12.372;2023-11-19T04:30:19;6.10;99.90
36374;DHT22;22399;51.346;12.372;2023-11-19T04:32:47;6.20;99.90
36374;DHT22;22399;51.346;12.372;2023-11-19T04:35:17;6.20;99.90
36374;DHT22;22399;51.346;12.372;2023-11-19T04:37:46;6.30;99.90
36374;DHT22;22399;51.346;12.372;2023-11-19T04:40:16;6.30;99.90
36374;DHT22;22399;51.346;12.372;2023-11-19T04:42:45;6.30;99.90
36374;DHT22;22399;51.346;12.372;2023-11-19T04:45:14;6.30;99.90
36374;DHT22;22399;51.346;12.372;2023-11-19T04:47:43;6.30;99.90
36374;DHT22;22399;51.346;12.372;2023-11-19T04:50:11;6.40;99.90
36374;DHT22;22399;51.346;12.372;2023-11-19T04:52:39;6.40;99.90
36374;DHT22;22399;51.346;12.372;2023-11-19T04:55:09;6.40;99.90
36374;DHT22;22399;51.346;12.372;2023-11-19T04:57:41;6.40;99.90
36374;DHT22;22399;51.346;12.372;2023-11-19T05:00:11;6.40;99.90
36374;DHT22;22399;51.346;12.372;2023-11-19T05:02:44;6.50;99.90
36374;DHT22;22399;51.346;12.372;2023-11-19T05:05:12;6.50;99.90
36374;DHT22;22399;51.346;12.372;2023-11-19T05:07:41;6.50;99.90
36374;DHT22;22399;51.346;12.372;2023-11-19T05:10:10;6.50;99.90
36374;DHT22;22399;51.346;12.372;2023-11-19T05:12:38;6.50;99.90
36374;DHT22;22399;51.346;12.372;2023-11-19T05:15:10;6.50;99.90
36374;DHT22;22399;51.346;12.372;2023-11-19T05:17:40;6.50;99.90
36374;DHT22;22399;51.346;12.372;2023-11-19T05:20:09;6.50;99.90
36374;DHT22;22399;51.346;12.372;2023-11-19T05:22:41;6.60;99.90
36374;DHT22;22399;51.346;12.372;2023-11-19T05:25:09;6.60;99.90
36374;DHT22;22399;51.346;12.372;2023-11-19T05:27:39;6.60;99.90
36374;DHT22;22399;51.346;12.372;2023-11-19T05:30:07;6.60;99.90
36374;DHT22;22399;51.346;12.372;2023-11-19T05:32:39;6.60;99.90
36374;DHT22;22399;51.346;12.372;2023-11-19T05:35:08;6.70;99.90
36374;DHT22;22399;51.346;12.372;2023-11-19T05:37:37;6.70;99.90
36374;DHT22;22399;51.346;12.372;2023-11-19T05:40:07;6.70;99.90
36374;DHT22;22399;51.346;12.372;2023-11-19T05:42:41;6.80;99.90
36374;DHT22;22399;51.346;12.372;2023-11-19T05:45:11;6.80;99.90
36374;DHT22;22399;51.346;12.372;2023-11-19T05:47:42;6.80;99.90
36374;DHT22;22399;51.346;12.372;2023-11-19T05:50:11;6.80;99.90
36374;DHT22;22399;51.346;12.372;2023-11-19T05:52:39;6.90;99.90
36374;DHT22;22399;51.346;12.372;2023-11-19T05:55:08;6.90;99.90
36374;DHT22;22399;51.346;12.372;2023-11-19T05:57:38;6.90;99.90
36374;DHT22;22399;51.346;12.372;2023-11-19T06:00:10;6.90;99.90
36374;DHT22;22399;51.346;12.372;2023-11-19T06:02:41;6.90;99.90
36374;DHT22;22399;51.346;12.372;2023-11-19T06:05:10;6.90;99.90
36374;DHT22;22399;51.346;12.372;2023-11-19T06:07:39;6.90;99.90
36374;DHT22;22399;51.346;12.372;2023-11-19T06:10:09;7.00;99.90
36374;DHT22;22399;51.346;12.372;2023-11-19T06:12:38;7.00;99.90
36374;DHT22;22399;51.346;12.372;2023-11-19T06:15:09;7.00;99.90
36374;DHT22;22399;51.346;12.372;2023-11-19T06:17:38;7.00;99.90
36374;DHT22;22399;51.346;12.372;2023-11-19T06:20:09;7.00;99.90
36374;DHT22;22399;51.346;12.372;2023-11-19T06:22:39;7.10;99.90
36374;DHT22;22399;51.346;12.372;2023-11-19T06:25:09;7.10;99.90
36374;DHT22;22399;51.346;12.372;2023-11-19T06:27:38;7.20;99.90
36374;DHT22;22399;51.346;12.372;2023-11-19T06:30:07;7.20;99.90
36374;DHT22;22399;51.346;12.372;2023-11-19T06:32:36;7.20;99.90
36374;DHT22;22399;51.346;12.372;2023-11-19T06:35:05;7.20;99.90
36374;DHT22;22399;51.346;12.372;2023-11-19T06:37:35;7.20;99.90
36374;DHT22;22399;51.346;12.372;2023-11-19T06:40:05;7.30;99.90
36374;DHT22;22399;51.346;12.372;2023-11-19T06:42:34;7.30;99.90
36374;DHT22;22399;51.346;12.372;2023-11-19T06:45:02;7.20;99.90
36374;DHT22;22399;51.346;12.372;2023-11-19T06:47:31;7.30;99.90
36374;DHT22;22399;51.346;12.372;2023-11-19T06:49:59;7.30;99.90
36374;DHT22;22399;51.346;12.372;2023-11-19T06:52:28;7.20;99.90
36374;DHT22;22399;51.346;12.372;2023-11-19T06:54:59;7.20;99.90
36374;DHT22;22399;51.346;12.372;2023-11-19T06:57:30;7.20;99.90
36374;DHT22;22399;51.346;12.372;2023-11-19T06:59:59;7.10;99.90
36374;DHT22;22399;51.346;12.372;2023-11-19T07:02:28;7.10;99.90
36374;DHT22;22399;51.346;12.372;2023-11-19T07:04:56;7.10;99.90
36374;DHT22;22399;51.346;12.372;2023-11-19T07:07:24;7.10;99.90
36374;DHT22;22399;51.346;12.372;2023-11-19T07:09:53;7.10;99.90
36374;DHT22;22399;51.346;12.372;2023-11-19T07:12:23;7.10;99.90
36374;DHT22;22399;51.346;12.372;2023-11-19T07:14:53;7.30;99.90
36374;DHT22;22399;51.346;12.372;2023-11-19T07:17:23;7.30;99.90
36374;DHT22;22399;51.346;12.372;2023-11-19T07:19:52;7.40;99.90
36374;DHT22;22399;51.346;12.372;2023-11-19T07:22:21;7.40;99.90
36374;DHT22;22399;51.346;12.372;2023-11-19T07:24:51;7.40;99.90
36374;DHT22;22399;51.346;12.372;2023-11-19T07:27:20;7.40;99.90
36374;DHT22;22399;51.346;12.372;2023-11-19T07:29:50;7.40;99.90
36374;DHT22;22399;51.346;12.372;2023-11-19T07:32:19;7.50;99.90
36374;DHT22;22399;51.346;12.372;2023-11-19T07:34:47;7.60;99.90
36374;DHT22;22399;51.346;12.372;2023-11-19T07:37:16;7.70;99.90
36374;DHT22;22399;51.346;12.372;2023-11-19T07:39:44;7.80;99.90
36374;DHT22;22399;51.346;12.372;2023-11-19T07:42:12;7.90;99.90
36374;DHT22;22399;51.346;12.372;2023-11-19T07:44:41;7.90;99.90
36374;DHT22;22399;51.346;12.372;2023-11-19T07:47:11;8.00;99.90
36374;DHT22;22399;51.346;12.372;2023-11-19T07:49:39;8.00;99.90
36374;DHT22;22399;51.346;12.372;2023-11-19T07:52:10;8.00;99.90
36374;DHT22;22399;51.346;12.372;2023-11-19T07:54:42;8.00;99.90
36374;DHT22;22399;51.346;12.372;2023-11-19T07:57:11;8.10;99.90
36374;DHT22;22399;51.346;12.372;2023-11-19T07:59:40;8.10;99.90
36374;DHT22;22399;51.346;12.372;2023-11-19T08:02:08;8.20;99.90
36374;DHT22;22399;51.346;12.372;2023-11-19T08:04:38;8.20;99.90
36374;DHT22;22399;51.346;12.372;2023-11-19T08:07:12;8.20;99.90
36374;DHT22;22399;51.346;12.372;2023-11-19T08:09:40;8.20;99.90
36374;DHT22;22399;51.346;12.372;2023-11-19T08:12:09;8.30;99.90
36374;DHT22;22399;51.346;12.372;2023-11-19T08:14:37;8.30;99.90
36374;DHT22;22399;51.346;12.372;2023-11-19T08:17:06;8.30;99.90
36374;DHT22;22399;51.346;12.372;2023-11-19T08:19:34;8.40;99.90
36374;DHT22;22399;51.346;12.372;2023-11-19T08:22:04;8.50;99.90
36374;DHT22;22399;51.346;12.372;2023-11-19T08:24:32;8.50;99.90
36374;DHT22;22399;51.346;12.372;2023-11-19T08:27:01;8.60;99.90
36374;DHT22;22399;51.346;12.372;2023-11-19T08:29:30;8.60;99.90
36374;DHT22;22399;51.346;12.372;2023-11-19T08:32:00;8.60;99.90
36374;DHT22;22399;51.346;12.372;2023-11-19T08:34:29;8.70;99.90
36374;DHT22;22399;51.346;12.372;2023-11-19T08:36:57;8.90;99.90
36374;DHT22;22399;51.346;12.372;2023-11-19T08:39:27;9.00;99.90
36374;DHT22;22399;51.346;12.372;2023-11-19T08:41:57;9.00;99.90
36374;DHT22;22399;51.346;12.372;2023-11-19T08:44:26;9.00;99.90
36374;DHT22;22399;51.346;12.372;2023-11-19T08:46:54;9.10;99.90
36374;DHT22;22399;51.346;12.372;2023-11-19T08:49:23;9.20;99.90
36374;DHT22;22399;51.346;12.372;2023-11-19T08:51:51;9.30;99.90
36374;DHT22;22399;51.346;12.372;2023-11-19T08:54:19;9.40;99.90
36374;DHT22;22399;51.346;12.372;2023-11-19T08:56:51;9.50;99.90
36374;DHT22;22399;51.346;12.372;2023-11-19T08:59:20;9.40;99.90
36374;DHT22;22399;51.346;12.372;2023-11-19T09:01:48;9.40;99.90
36374;DHT22;22399;51.346;12.372;2023-11-19T09:04:17;9.50;99.90
36374;DHT22;22399;51.346;12.372;2023-11-19T09:06:49;9.60;99.90
36374;DHT22;22399;51.346;12.372;2023-11-19T09:09:17;9.70;99.90
36374;DHT22;22399;51.346;12.372;2023-11-19T09:11:46;9.70;99.90
36374;DHT22;22399;51.346;12.372;2023-11-19T09:14:15;9.90;99.90
36374;DHT22;22399;51.346;12.372;2023-11-19T09:16:45;10.10;99.90
36374;DHT22;22399;51.346;12.372;2023-11-19T09:19:13;10.30;99.90
36374;DHT22;22399;51.346;12.372;2023-11-19T09:21:41;10.40;99.90
36374;DHT22;22399;51.346;12.372;2023-11-19T09:24:10;10.40;99.90
36374;DHT22;22399;51.346;12.372;2023-11-19T09:26:42;10.30;99.90
36374;DHT22;22399;51.346;12.372;2023-11-19T09:29:11;10.30;99.90
36374;DHT22;22399;51.346;12.372;2023-11-19T09:31:42;10.40;99.90
36374;DHT22;22399;51.346;12.372;2023-11-19T09:34:11;10.40;99.90
36374;DHT22;22399;51.346;12.372;2023-11-19T09:36:39;10.40;99.90
36374;DHT22;22399;51.346;12.372;2023-11-19T09:39:11;10.50;99.90
36374;DHT22;22399;51.346;12.372;2023-11-19T09:41:40;10.50;99.90
36374;DHT22;22399;51.346;12.372;2023-11-19T09:44:09;10.40;99.90
36374;DHT22;22399;51.346;12.372;2023-11-19T09:46:42;10.40;99.90
36374;DHT22;22399;51.346;12.372;2023-11-19T09:49:11;10.40;99.90
36374;DHT22;22399;51.346;12.372;2023-11-19T09:51:41;10.40;99.90
36374;DHT22;22399;51.346;12.372;2023-11-19T09:54:10;10.40;99.90
36374;DHT22;22399;51.346;12.372;2023-11-19T09:56:40;10.50;99.90
36374;DHT22;22399;51.346;12.372;2023-11-19T09:59:09;10.50;99.90
36374;DHT22;22399;51.346;12.372;2023-11-19T10:01:38;10.50;99.90
36374;DHT22;22399;51.346;12.372;2023-11-19T10:04:09;10.50;99.90
36374;DHT22;22399;51.346;12.372;2023-11-19T10:06:39;10.60;99.90
36374;DHT22;22399;51.346;12.372;2023-11-19T10:09:07;10.60;99.90
36374;DHT22;22399;51.346;12.372;2023-11-19T10:11:36;10.60;99.90
36374;DHT22;22399;51.346;12.372;2023-11-19T10:14:05;10.60;99.90
36374;DHT22;22399;51.346;12.372;2023-11-19T10:16:35;10.60;99.90
36374;DHT22;22399;51.346;12.372;2023-11-19T10:19:03;10.60;99.90
36374;DHT22;22399;51.346;12.372;2023-11-19T10:21:34;10.60;99.90
36374;DHT22;22399;51.346;12.372;2023-11-19T10:24:03;10.60;99.90
36374;DHT22;22399;51.346;12.372;2023-11-19T10:26:36;10.60;99.90
36374;DHT22;22399;51.346;12.372;2023-11-19T10:29:05;10.70;99.90
36374;DHT22;22399;51.346;12.372;2023-11-19T10:31:33;10.70;99.90
36374;DHT22;22399;51.346;12.372;2023-11-19T10:34:01;10.90;99.90
36374;DHT22;22399;51.346;12.372;2023-11-19T10:36:39;10.90;99.90
36374;DHT22;22399;51.346;12.372;2023-11-19T10:39:09;10.90;99.90
36374;DHT22;22399;51.346;12.372;2023-11-19T10:41:37;10.90;99.90
36374;DHT22;22399;51.346;12.372;2023-11-19T10:44:06;11.00;99.90
36374;DHT22;22399;51.346;12.372;2023-11-19T10:46:39;11.00;99.90
36374;DHT22;22399;51.346;12.372;2023-11-19T10:49:08;11.00;99.90
36374;DHT22;22399;51.346;12.372;2023-11-19T10:51:36;11.00;99.90
36374;DHT22;22399;51.346;12.372;2023-11-19T10:54:11;11.10;99.90
36374;DHT22;22399;51.346;12.372;2023-11-19T10:56:43;11.60;99.90
36374;DHT22;22399;51.346;12.372;2023-11-19T10:59:14;12.00;99.90
36374;DHT22;22399;51.346;12.372;2023-11-19T11:01:49;12.30;99.90
36374;DHT22;22399;51.346;12.372;2023-11-19T11:04:33;12.50;99.90
36374;DHT22;22399;51.346;12.372;2023-11-19T11:07:02;12.70;99.90
36374;DHT22;22399;51.346;12.372;2023-11-19T11:09:32;12.90;99.90
36374;DHT22;22399;51.346;12.372;2023-11-19T11:12:01;13.10;99.90
36374;DHT22;22399;51.346;12.372;2023-11-19T11:14:32;13.50;99.90
36374;DHT22;22399;51.346;12.372;2023-11-19T11:17:03;13.70;99.90
36374;DHT22;22399;51.346;12.372;2023-11-19T11:19:35;14.00;99.90
36374;DHT22;22399;51.346;12.372;2023-11-19T11:22:04;14.40;99.90
36374;DHT22;22399;51.346;12.372;2023-11-19T11:27:48;14.90;99.90
36374;DHT22;22399;51.346;12.372;2023-11-19T11:30:28;14.90;99.90
36374;DHT22;22399;51.346;12.372;2023-11-19T11:33:07;15.10;99.90
36374;DHT22;22399;51.346;12.372;2023-11-19T11:35:46;15.20;99.90
36374;DHT22;22399;51.346;12.372;2023-11-19T11:38:22;15.20;99.90
36374;DHT22;22399;51.346;12.372;2023-11-19T11:41:16;15.20;99.90
36374;DHT22;22399;51.346;12.372;2023-11-19T11:43:48;15.00;99.90
36374;DHT22;22399;51.346;12.372;2023-11-19T11:46:54;15.00;99.90
36374;DHT22;22399;51.346;12.372;2023-11-19T11:49:27;15.00;99.90
36374;DHT22;22399;51.346;12.372;2023-11-19T11:52:01;14.80;99.90
36374;DHT22;22399;51.346;12.372;2023-11-19T11:54:31;14.40;99.90
36374;DHT22;22399;51.346;12.372;2023-11-19T11:57:07;13.90;99.90
36374;DHT22;22399;51.346;12.372;2023-11-19T11:59:46;13.50;99.90
36374;DHT22;22399;51.346;12.372;2023-11-19T12:02:16;13.10;99.90
36374;DHT22;22399;51.346;12.372;2023-11-19T12:04:48;12.80;99.90
36374;DHT22;22399;51.346;12.372;2023-11-19T12:07:18;12.60;99.90
36374;DHT22;22399;51.346;12.372;2023-11-19T12:09:52;12.70;99.90
36374;DHT22;22399;51.346;12.372;2023-11-19T12:12:26;12.90;99.90
36374;DHT22;22399;51.346;12.372;2023-11-19T12:15:02;13.00;99.90
36374;DHT22;22399;51.346;12.372;2023-11-19T12:17:49;13.30;99.90
36374;DHT22;22399;51.346;12.372;2023-11-19T12:20:21;13.50;99.90
36374;DHT22;22399;51.346;12.372;2023-11-19T12:22:53;13.60;99.90
36374;DHT22;22399;51.346;12.372;2023-11-19T12:25:22;13.90;99.90
36374;DHT22;22399;51.346;12.372;2023-11-19T12:27:53;14.00;99.90
36374;DHT22;22399;51.346;12.372;2023-11-19T12:30:23;14.20;99.90
36374;DHT22;22399;51.346;12.372;2023-11-19T12:32:53;14.40;99.90
36374;DHT22;22399;51.346;12.372;2023-11-19T12:35:26;14.60;99.90
36374;DHT22;22399;51.346;12.372;2023-11-19T12:37:58;14.60;99.90
36374;DHT22;22399;51.346;12.372;2023-11-19T12:40:27;14.50;99.90
36374;DHT22;22399;51.346;12.372;2023-11-19T12:42:57;14.50;99.90
36374;DHT22;22399;51.346;12.372;2023-11-19T12:45:34;14.30;99.90
36374;DHT22;22399;51.346;12.372;2023-11-19T12:48:04;14.00;99.90
36374;DHT22;22399;51.346;12.372;2023-11-19T12:50:50;13.90;99.90
36374;DHT22;22399;51.346;12.372;2023-11-19T12:53:20;14.00;99.90
36374;DHT22;22399;51.346;12.372;2023-11-19T12:55:48;14.10;99.90
36374;DHT22;22399;51.346;12.372;2023-11-19T12:58:31;14.10;99.90
36374;DHT22;22399;51.346;12.372;2023-11-19T13:01:01;14.20;99.90
36374;DHT22;22399;51.346;12.372;2023-11-19T13:03:31;14.10;99.90
36374;DHT22;22399;51.346;12.372;2023-11-19T13:06:04;14.00;99.90
36374;DHT22;22399;51.346;12.372;2023-11-19T13:08:39;13.90;99.90
36374;DHT22;22399;51.346;12.372;2023-11-19T13:11:08;13.70;99.90
36374;DHT22;22399;51.346;12.372;2023-11-19T13:13:55;13.60;99.90
36374;DHT22;22399;51.346;12.372;2023-11-19T13:16:24;13.60;99.90
36374;DHT22;22399;51.346;12.372;2023-11-19T13:18:54;13.60;99.90
36374;DHT22;22399;51.346;12.372;2023-11-19T13:21:23;13.70;99.90
36374;DHT22;22399;51.346;12.372;2023-11-19T13:23:51;13.90;99.90
36374;DHT22;22399;51.346;12.372;2023-11-19T13:26:20;14.20;99.90
36374;DHT22;22399;51.346;12.372;2023-11-19T13:28:48;14.30;99.90
36374;DHT22;22399;51.346;12.372;2023-11-19T13:31:18;14.20;99.90
36374;DHT22;22399;51.346;12.372;2023-11-19T13:33:47;14.00;99.90
36374;DHT22;22399;51.346;12.372;2023-11-19T13:36:15;13.90;99.90
36374;DHT22;22399;51.346;12.372;2023-11-19T13:38:44;13.60;99.90
36374;DHT22;22399;51.346;12.372;2023-11-19T13:41:14;13.50;99.90
36374;DHT22;22399;51.346;12.372;2023-11-19T13:43:42;13.40;99.90
36374;DHT22;22399;51.346;12.372;2023-11-19T13:46:11;13.30;99.90
36374;DHT22;22399;51.346;12.372;2023-11-19T13:48:41;13.10;99.90
36374;DHT22;22399;51.346;12.372;2023-11-19T13:51:10;13.00;99.90
36374;DHT22;22399;51.346;12.372;2023-11-19T13:53:39;12.90;99.90
36374;DHT22;22399;51.346;12.372;2023-11-19T13:56:10;12.80;99.90
36374;DHT22;22399;51.346;12.372;2023-11-19T13:58:39;12.70;99.90
36374;DHT22;22399;51.346;12.372;2023-11-19T14:01:08;12.60;99.90
36374;DHT22;22399;51.346;12.372;2023-11-19T14:03:36;12.60;99.90
36374;DHT22;22399;51.346;12.372;2023-11-19T14:06:07;12.60;99.90
36374;DHT22;22399;51.346;12.372;2023-11-19T14:08:36;12.70;99.90
36374;DHT22;22399;51.346;12.372;2023-11-19T14:11:05;12.70;99.90
36374;DHT22;22399;51.346;12.372;2023-11-19T14:13:34;12.80;99.90
36374;DHT22;22399;51.346;12.372;2023-11-19T14:16:03;12.90;99.90
36374;DHT22;22399;51.346;12.372;2023-11-19T14:18:33;13.00;99.90
36374;DHT22;22399;51.346;12.372;2023-11-19T14:21:03;13.00;99.90
36374;DHT22;22399;51.346;12.372;2023-11-19T14:23:33;12.90;99.90
36374;DHT22;22399;51.346;12.372;2023-11-19T14:26:01;12.80;99.90
36374;DHT22;22399;51.346;12.372;2023-11-19T14:28:29;12.80;99.90
36374;DHT22;22399;51.346;12.372;2023-11-19T14:30:58;12.70;99.90
36374;DHT22;22399;51.346;12.372;2023-11-19T14:33:26;12.70;99.90
36374;DHT22;22399;51.346;12.372;2023-11-19T14:35:55;12.70;99.90
36374;DHT22;22399;51.346;12.372;2023-11-19T14:38:23;12.60;99.90
36374;DHT22;22399;51.346;12.372;2023-11-19T14:40:53;12.60;99.90
36374;DHT22;22399;51.346;12.372;2023-11-19T14:43:21;12.60;99.90
36374;DHT22;22399;51.346;12.372;2023-11-19T14:45:51;12.60;99.90
36374;DHT22;22399;51.346;12.372;2023-11-19T14:48:22;12.60;99.90
36374;DHT22;22399;51.346;12.372;2023-11-19T14:50:50;12.60;99.90
36374;DHT22;22399;51.346;12.372;2023-11-19T14:53:19;12.60;99.90
36374;DHT22;22399;51.346;12.372;2023-11-19T14:55:47;12.60;99.90
36374;DHT22;22399;51.346;12.372;2023-11-19T14:58:17;12.60;99.90
36374;DHT22;22399;51.346;12.372;2023-11-19T15:00:46;12.60;99.90
36374;DHT22;22399;51.346;12.372;2023-11-19T15:03:14;12.60;99.90
36374;DHT22;22399;51.346;12.372;2023-11-19T15:05:45;12.60;99.90
36374;DHT22;22399;51.346;12.372;2023-11-19T15:08:13;12.60;99.90
36374;DHT22;22399;51.346;12.372;2023-11-19T15:10:43;12.60;99.90
36374;DHT22;22399;51.346;12.372;2023-11-19T15:13:12;12.50;99.90
36374;DHT22;22399;51.346;12.372;2023-11-19T15:15:42;12.50;99.90
36374;DHT22;22399;51.346;12.372;2023-11-19T15:18:10;12.50;99.90
36374;DHT22;22399;51.346;12.372;2023-11-19T15:20:39;12.50;99.90
36374;DHT22;22399;51.346;12.372;2023-11-19T15:23:07;12.50;99.90
36374;DHT22;22399;51.346;12.372;2023-11-19T15:25:37;12.40;99.90
36374;DHT22;22399;51.346;12.372;2023-11-19T15:28:06;12.40;99.90
36374;DHT22;22399;51.346;12.372;2023-11-19T15:30:35;12.30;99.90
36374;DHT22;22399;51.346;12.372;2023-11-19T15:33:04;12.20;99.90
36374;DHT22;22399;51.346;12.372;2023-11-19T15:35:33;12.10;99.90
36374;DHT22;22399;51.346;12.372;2023-11-19T15:38:01;12.00;99.90
36374;DHT22;22399;51.346;12.372;2023-11-19T15:40:30;12.00;99.90
36374;DHT22;22399;51.346;12.372;2023-11-19T15:42:59;12.10;99.90
36374;DHT22;22399;51.346;12.372;2023-11-19T15:45:28;12.10;99.90